Time;durP1;ratioP1;P1;durP2;ratioP2;P2;SDS_P1;SDS_P2;PMS_P1;PMS_P2;Temp;Humidity;BMP_temperature;BMP_pressure;BME280_temperature;BME280_humidity;BME280_pressure;Samples;Min_cycle;Max_cycle;Signal;HPM_P1;HPM_P2
2021/01/05 00:01:10;;;;;;;9.13;8.40;;;;;;;;;;5093337;28;20687;-82
2021/01/05 00:03:43;;;;;;;9.77;9.03;;;;;;;;;;5093622;28;20657;-82
2021/01/05 00:06:19;;;;;;;8.73;8.13;;;;;;;;;;5093738;28;20156;-82
2021/01/05 00:08:51;;;;;;;8.97;8.30;;;;;;;;;;5093432;28;20190;-83
2021/01/05 00:11:21;;;;;;;9.80;8.87;;;;;;;;;;5077993;28;20613;-82
2021/01/05 00:13:52;;;;;;;10.47;9.67;;;;;;;;;;5097124;28;20182;-82
2021/01/05 00:16:29;;;;;;;10.20;9.30;;;;;;;;;;5097347;28;20177;-82
2021/01/05 00:19:01;;;;;;;10.23;9.43;;;;;;;;;;5097313;28;20163;-82
2021/01/05 00:21:31;;;;;;;9.80;9.00;;;;;;;;;;5097018;28;20210;-82
2021/01/05 00:24:03;;;;;;;10.43;9.53;;;;;;;;;;5097477;28;20520;-82
2021/01/05 00:26:38;;;;;;;10.23;9.17;;;;;;;;;;5096891;28;20174;-82
2021/01/05 00:29:08;;;;;;;9.20;8.57;;;;;;;;;;5096937;28;20195;-82
2021/01/05 00:31:34;;;;;;;9.23;8.57;;;;;;;;;;5096844;28;20568;-82
2021/01/05 00:34:05;;;;;;;10.40;9.63;;;;;;;;;;5097356;28;20210;-83
2021/01/05 00:36:34;;;;;;;10.20;9.50;;;;;;;;;;5078503;28;20258;-82
2021/01/05 00:39:10;;;;;;;8.90;8.30;;;;;;;;;;5078450;28;20200;-82
2021/01/05 00:41:41;;;;;;;9.53;8.70;;;;;;;;;;5096786;28;20216;-82
2021/01/05 00:44:15;;;;;;;8.93;8.23;;;;;;;;;;5078412;28;20183;-82
2021/01/05 00:46:49;;;;;;;10.27;9.17;;;;;;;;;;5096472;28;20167;-83
2021/01/05 00:49:21;;;;;;;9.63;8.80;;;;;;;;;;5096940;28;20535;-82
2021/01/05 00:51:49;;;;;;;8.93;8.17;;;;;;;;;;5096856;28;20197;-84
2021/01/05 00:54:19;;;;;;;9.80;9.10;;;;;;;;;;5078068;28;20182;-84
2021/01/05 00:57:05;;;;;;;8.87;8.27;;;;;;;;;;5096412;28;20172;-83
2021/01/05 00:59:35;;;;;;;9.33;8.63;;;;;;;;;;5096314;28;20173;-83
2021/01/05 01:02:09;;;;;;;9.53;8.83;;;;;;;;;;5096263;28;20208;-83
2021/01/05 01:04:41;;;;;;;8.90;8.30;;;;;;;;;;5078089;28;20183;-83
2021/01/05 01:07:11;;;;;;;9.13;8.43;;;;;;;;;;5078030;28;20186;-83
2021/01/05 01:09:38;;;;;;;9.43;8.83;;;;;;;;;;5095993;28;20550;-83
2021/01/05 01:12:16;;;;;;;9.07;8.37;;;;;;;;;;5096011;28;20214;-83
2021/01/05 01:14:51;;;;;;;9.00;8.40;;;;;;;;;;5078063;28;20181;-82
2021/01/05 01:17:25;;;;;;;9.47;8.87;;;;;;;;;;5078088;28;20180;-82
2021/01/05 01:19:56;;;;;;;8.70;8.20;;;;;;;;;;5096176;28;20518;-82
2021/01/05 01:22:23;;;;;;;8.87;8.27;;;;;;;;;;5095098;28;20624;-82
2021/01/05 01:24:55;;;;;;;9.53;8.60;;;;;;;;;;5077993;28;20200;-82
2021/01/05 01:27:25;;;;;;;9.37;8.57;;;;;;;;;;5077444;28;20181;-83
2021/01/05 01:29:54;;;;;;;9.23;8.60;;;;;;;;;;5078946;28;20169;-82
2021/01/05 01:32:20;;;;;;;8.63;8.03;;;;;;;;;;5077594;28;20195;-82
2021/01/05 01:34:51;;;;;;;8.57;7.77;;;;;;;;;;5077899;28;20205;-83
2021/01/05 01:37:19;;;;;;;8.10;7.60;;;;;;;;;;5077238;28;20592;-83
2021/01/05 01:39:45;;;;;;;9.63;8.80;;;;;;;;;;5095077;28;20168;-82
2021/01/05 01:42:19;;;;;;;9.77;9.07;;;;;;;;;;5095214;28;20200;-83
2021/01/05 01:44:49;;;;;;;9.30;8.70;;;;;;;;;;5095562;28;20159;-83
2021/01/05 01:47:28;;;;;;;9.17;8.47;;;;;;;;;;5095288;28;20178;-83
2021/01/05 01:50:01;;;;;;;8.80;8.20;;;;;;;;;;5095490;28;20178;-83
2021/01/05 01:53:05;;;;;;;9.07;8.43;;;;;;;;;;5095133;28;20197;-83
2021/01/05 01:55:50;;;;;;;8.93;8.33;;;;;;;;;;5052385;28;20189;-83
2021/01/05 01:58:41;;;;;;;8.93;8.33;;;;;;;;;;5095144;28;20174;-83
2021/01/05 02:01:26;;;;;;;9.37;8.67;;;;;;;;;;5095061;28;20256;-83
2021/01/05 02:04:15;;;;;;;8.90;8.30;;;;;;;;;;5095397;28;20175;-84
2021/01/05 02:07:00;;;;;;;9.87;9.23;;;;;;;;;;5094849;28;20179;-83
2021/01/05 02:09:41;;;;;;;8.67;7.97;;;;;;;;;;5094858;28;20177;-83
2021/01/05 02:12:24;;;;;;;9.23;8.63;;;;;;;;;;5076599;28;20200;-83
2021/01/05 02:15:06;;;;;;;8.33;7.83;;;;;;;;;;5094983;28;20177;-83
2021/01/05 02:17:48;;;;;;;8.63;8.03;;;;;;;;;;5095109;28;20193;-84
2021/01/05 02:20:26;;;;;;;8.77;8.07;;;;;;;;;;5094300;28;20194;-84
2021/01/05 02:23:14;;;;;;;8.67;7.97;;;;;;;;;;5094782;28;20182;-84
2021/01/05 02:25:50;;;;;;;8.10;7.60;;;;;;;;;;5094439;28;20175;-84
2021/01/05 02:28:20;;;;;;;8.70;8.10;;;;;;;;;;5076163;28;20581;-84
2021/01/05 02:30:54;;;;;;;8.93;8.13;;;;;;;;;;5076121;28;20209;-83
2021/01/05 02:33:37;;;;;;;8.07;7.57;;;;;;;;;;5076210;28;20171;-83
2021/01/05 02:36:25;;;;;;;8.97;8.27;;;;;;;;;;5076218;28;20172;-83
2021/01/05 02:39:07;;;;;;;8.17;7.67;;;;;;;;;;5094258;28;20193;-84
2021/01/05 02:41:52;;;;;;;7.70;7.20;;;;;;;;;;5094457;28;20213;-83
2021/01/05 02:44:26;;;;;;;9.10;8.50;;;;;;;;;;5094201;28;20658;-84
2021/01/05 02:47:08;;;;;;;8.70;8.17;;;;;;;;;;5076061;28;20175;-84
2021/01/05 02:49:49;;;;;;;8.50;8.00;;;;;;;;;;5094221;28;20263;-83
2021/01/05 02:52:21;;;;;;;8.83;8.33;;;;;;;;;;5093897;28;20224;-84
2021/01/05 02:55:09;;;;;;;9.00;8.30;;;;;;;;;;5076122;28;20172;-83
2021/01/05 02:57:55;;;;;;;8.97;8.37;;;;;;;;;;5093933;28;20171;-84
2021/01/05 03:00:30;;;;;;;8.07;7.53;;;;;;;;;;5075734;28;20202;-83
2021/01/05 03:03:18;;;;;;;8.90;8.30;;;;;;;;;;5094205;28;20181;-84
2021/01/05 03:05:49;;;;;;;7.93;7.43;;;;;;;;;;5093791;28;20174;-84
2021/01/05 03:08:23;;;;;;;8.87;8.37;;;;;;;;;;5093749;28;20177;-84
2021/01/05 03:10:56;;;;;;;7.80;7.30;;;;;;;;;;5094214;28;20317;-83
2021/01/05 03:13:38;;;;;;;9.00;8.40;;;;;;;;;;5093986;28;20174;-84
2021/01/05 03:16:10;;;;;;;9.70;8.93;;;;;;;;;;5094104;28;20263;-83
2021/01/05 03:18:47;;;;;;;9.20;8.60;;;;;;;;;;5075534;28;20653;-84
2021/01/05 03:21:28;;;;;;;8.80;8.27;;;;;;;;;;5093705;28;20214;-83
2021/01/05 03:24:01;;;;;;;8.33;7.73;;;;;;;;;;5075502;28;20185;-83
2021/01/05 03:26:45;;;;;;;8.93;8.43;;;;;;;;;;5075380;28;20179;-84
2021/01/05 03:29:20;;;;;;;9.40;8.80;;;;;;;;;;5093610;28;20200;-84
2021/01/05 03:31:54;;;;;;;9.00;8.50;;;;;;;;;;5093681;28;20651;-83
2021/01/05 03:34:25;;;;;;;8.40;7.70;;;;;;;;;;5093665;28;20660;-83
2021/01/05 03:36:53;;;;;;;8.80;8.30;;;;;;;;;;5075311;28;20622;-84
2021/01/05 03:39:25;;;;;;;8.27;7.77;;;;;;;;;;5075399;28;20185;-83
2021/01/05 03:41:57;;;;;;;8.07;7.67;;;;;;;;;;5075230;28;20586;-84
2021/01/05 03:44:29;;;;;;;8.20;7.73;;;;;;;;;;5075168;28;20180;-84
2021/01/05 03:46:55;;;;;;;8.50;8.00;;;;;;;;;;5097578;28;20603;-83
2021/01/05 03:49:27;;;;;;;8.53;8.03;;;;;;;;;;5097812;28;20228;-84
2021/01/05 03:51:59;;;;;;;9.20;8.47;;;;;;;;;;5097683;28;20186;-84
2021/01/05 03:54:35;;;;;;;8.43;8.03;;;;;;;;;;5097512;28;20178;-84
2021/01/05 03:57:07;;;;;;;7.67;7.27;;;;;;;;;;5079811;28;20557;-84
2021/01/05 03:59:45;;;;;;;8.23;7.70;;;;;;;;;;5097327;28;20183;-83
2021/01/05 04:02:15;;;;;;;7.77;7.37;;;;;;;;;;5097309;28;20210;-84
2021/01/05 04:04:49;;;;;;;8.37;7.77;;;;;;;;;;5078909;28;20185;-84
2021/01/05 04:07:20;;;;;;;7.77;7.27;;;;;;;;;;5097285;28;20175;-83
2021/01/05 04:09:54;;;;;;;8.50;8.00;;;;;;;;;;5097143;28;20178;-83
2021/01/05 04:12:20;;;;;;;8.30;7.80;;;;;;;;;;5097216;28;20755;-84
2021/01/05 04:14:49;;;;;;;8.03;7.53;;;;;;;;;;5079139;28;20170;-84
2021/01/05 04:17:18;;;;;;;8.83;8.33;;;;;;;;;;5097384;28;20248;-83
2021/01/05 04:19:50;;;;;;;8.63;8.13;;;;;;;;;;5096806;28;20171;-83
2021/01/05 04:22:18;;;;;;;8.00;7.60;;;;;;;;;;5078783;28;20203;-84
2021/01/05 04:24:46;;;;;;;8.23;7.53;;;;;;;;;;5096859;28;20630;-84
2021/01/05 04:27:18;;;;;;;7.80;7.33;;;;;;;;;;5078544;28;20177;-83
2021/01/05 04:29:51;;;;;;;7.57;7.07;;;;;;;;;;5078589;28;20191;-83
2021/01/05 04:32:25;;;;;;;7.53;7.03;;;;;;;;;;5096664;28;20256;-84
2021/01/05 04:34:56;;;;;;;8.33;7.83;;;;;;;;;;5097012;28;20170;-84
2021/01/05 04:37:25;;;;;;;7.70;7.27;;;;;;;;;;5097112;28;20164;-84
2021/01/05 04:39:55;;;;;;;7.80;7.40;;;;;;;;;;5078607;28;20177;-84
2021/01/05 04:42:29;;;;;;;7.13;6.73;;;;;;;;;;5096861;28;20205;-84
2021/01/05 04:45:04;;;;;;;8.00;7.50;;;;;;;;;;5078418;28;20159;-84
2021/01/05 04:47:36;;;;;;;7.93;7.43;;;;;;;;;;5078881;28;20194;-84
2021/01/05 04:50:08;;;;;;;8.03;7.63;;;;;;;;;;5078224;28;20174;-84
2021/01/05 04:52:41;;;;;;;7.37;6.97;;;;;;;;;;5078086;28;20643;-84
2021/01/05 04:55:28;;;;;;;8.83;8.10;;;;;;;;;;5096299;28;20547;-84
2021/01/05 04:58:06;;;;;;;7.43;7.03;;;;;;;;;;5095490;28;20510;-84
2021/01/05 05:00:39;;;;;;;7.57;7.17;;;;;;;;;;5096360;28;20282;-84
2021/01/05 05:03:28;;;;;;;8.00;7.50;;;;;;;;;;5096787;28;20162;-84
2021/01/05 05:06:16;;;;;;;7.93;7.50;;;;;;;;;;5077858;28;20172;-84
2021/01/05 05:09:07;;;;;;;8.00;7.40;;;;;;;;;;5096419;28;20159;-84
2021/01/05 05:11:46;;;;;;;7.03;6.63;;;;;;;;;;5095902;28;20192;-84
2021/01/05 05:14:21;;;;;;;7.90;7.40;;;;;;;;;;5095938;28;20181;-84
2021/01/05 05:17:04;;;;;;;8.70;7.83;;;;;;;;;;5096288;28;20164;-84
2021/01/05 05:19:47;;;;;;;7.53;7.03;;;;;;;;;;5095747;28;20174;-84
2021/01/05 05:22:21;;;;;;;7.23;6.83;;;;;;;;;;5077638;28;20210;-84
2021/01/05 05:25:01;;;;;;;7.60;7.00;;;;;;;;;;5077987;28;20168;-83
2021/01/05 05:27:45;;;;;;;6.70;6.30;;;;;;;;;;5095568;28;20180;-84
2021/01/05 05:30:21;;;;;;;6.93;6.53;;;;;;;;;;5095342;28;20525;-84
2021/01/05 05:33:01;;;;;;;7.03;6.63;;;;;;;;;;5095707;28;20526;-84
2021/01/05 05:35:45;;;;;;;7.60;7.10;;;;;;;;;;5095431;28;20176;-84
2021/01/05 05:38:31;;;;;;;7.40;7.00;;;;;;;;;;5077741;28;20167;-84
2021/01/05 05:41:21;;;;;;;7.63;7.23;;;;;;;;;;5095485;28;20237;-84
2021/01/05 05:44:07;;;;;;;6.13;5.73;;;;;;;;;;5077292;28;20183;-84
2021/01/05 05:46:42;;;;;;;6.83;6.43;;;;;;;;;;5095137;28;20227;-84
2021/01/05 05:49:30;;;;;;;7.40;7.00;;;;;;;;;;5095110;28;20172;-84
2021/01/05 05:52:05;;;;;;;8.07;7.57;;;;;;;;;;5095273;28;20200;-84
2021/01/05 05:54:36;;;;;;;7.73;7.30;;;;;;;;;;5095039;28;20259;-84
2021/01/05 05:57:27;;;;;;;7.87;7.37;;;;;;;;;;5095212;28;20172;-84
2021/01/05 05:59:57;;;;;;;7.60;7.20;;;;;;;;;;5095096;28;20178;-84
2021/01/05 06:02:30;;;;;;;7.80;7.30;;;;;;;;;;5076725;28;20220;-84
2021/01/05 06:05:01;;;;;;;7.13;6.63;;;;;;;;;;5076742;28;20627;-84
2021/01/05 06:07:35;;;;;;;8.10;7.60;;;;;;;;;;5076470;28;20181;-84
2021/01/05 06:10:06;;;;;;;8.37;7.87;;;;;;;;;;5094863;28;20250;-84
2021/01/05 06:12:37;;;;;;;7.73;7.23;;;;;;;;;;5094987;28;20198;-84
2021/01/05 06:15:16;;;;;;;7.70;7.27;;;;;;;;;;5075282;28;20233;-84
2021/01/05 06:17:42;;;;;;;8.13;7.63;;;;;;;;;;5095021;28;20525;-84
2021/01/05 06:20:14;;;;;;;8.87;8.13;;;;;;;;;;5095003;28;20227;-84
2021/01/05 06:22:44;;;;;;;8.27;7.77;;;;;;;;;;5076380;28;20183;-84
2021/01/05 06:25:18;;;;;;;8.00;7.50;;;;;;;;;;5094751;28;20181;-83
2021/01/05 06:27:44;;;;;;;8.13;7.63;;;;;;;;;;5094757;28;20201;-83
2021/01/05 06:30:13;;;;;;;7.23;6.73;;;;;;;;;;5095408;28;20171;-83
2021/01/05 06:32:51;;;;;;;6.23;5.83;;;;;;;;;;5094423;28;20171;-83
2021/01/05 06:35:26;;;;;;;6.07;5.67;;;;;;;;;;5094357;28;20202;-84
2021/01/05 06:37:58;;;;;;;5.60;5.30;;;;;;;;;;5094554;28;20181;-83
2021/01/05 06:40:31;;;;;;;6.43;6.03;;;;;;;;;;5076550;28;20203;-84
2021/01/05 06:43:04;;;;;;;6.30;5.90;;;;;;;;;;5076031;28;20189;-84
2021/01/05 06:45:41;;;;;;;7.50;7.00;;;;;;;;;;5094269;28;20204;-84
2021/01/05 06:48:15;;;;;;;7.47;7.07;;;;;;;;;;5094318;28;20638;-83
2021/01/05 06:50:49;;;;;;;7.27;6.77;;;;;;;;;;5077200;28;20620;-84
2021/01/05 06:53:19;;;;;;;7.10;6.70;;;;;;;;;;5094819;28;20175;-84
2021/01/05 06:55:49;;;;;;;6.80;6.30;;;;;;;;;;5077648;28;20267;-83
2021/01/05 06:58:17;;;;;;;7.40;6.90;;;;;;;;;;5075950;28;20210;-83
2021/01/05 07:00:47;;;;;;;8.13;7.63;;;;;;;;;;5094517;28;20342;-83
2021/01/05 07:03:13;;;;;;;8.17;7.67;;;;;;;;;;5094108;28;20175;-84
2021/01/05 07:05:45;;;;;;;8.40;7.90;;;;;;;;;;5075984;28;20179;-84
2021/01/05 07:08:21;;;;;;;9.10;8.50;;;;;;;;;;5094287;28;20293;-83
2021/01/05 07:10:52;;;;;;;8.90;8.30;;;;;;;;;;5095143;28;20193;-83
2021/01/05 07:13:21;;;;;;;8.47;7.97;;;;;;;;;;5094181;28;20531;-84
2021/01/05 07:15:51;;;;;;;8.53;8.00;;;;;;;;;;5094141;28;20234;-84
2021/01/05 07:18:22;;;;;;;8.77;8.17;;;;;;;;;;5075970;28;20178;-84
2021/01/05 07:20:50;;;;;;;7.63;7.23;;;;;;;;;;5093348;28;20608;-84
2021/01/05 07:23:18;;;;;;;8.33;7.83;;;;;;;;;;5094097;28;20180;-84
2021/01/05 07:25:51;;;;;;;8.70;8.20;;;;;;;;;;5094159;28;20182;-84
2021/01/05 07:28:25;;;;;;;8.30;7.57;;;;;;;;;;5094128;28;20168;-84
2021/01/05 07:30:58;;;;;;;8.37;7.83;;;;;;;;;;5093855;28;20194;-84
2021/01/05 07:33:27;;;;;;;8.33;7.83;;;;;;;;;;5093940;28;20182;-83
2021/01/05 07:35:59;;;;;;;8.27;7.87;;;;;;;;;;5075689;28;20182;-84
2021/01/05 07:38:25;;;;;;;8.70;8.20;;;;;;;;;;5075683;28;20272;-84
2021/01/05 07:40:55;;;;;;;8.43;7.93;;;;;;;;;;5075444;28;20210;-84
2021/01/05 07:43:24;;;;;;;9.10;8.50;;;;;;;;;;5075528;28;20178;-84
2021/01/05 07:45:59;;;;;;;8.27;7.77;;;;;;;;;;5075267;28;20673;-84
2021/01/05 07:48:30;;;;;;;8.80;8.30;;;;;;;;;;5093944;28;20174;-84
2021/01/05 07:51:06;;;;;;;8.43;7.93;;;;;;;;;;5075122;28;20199;-84
2021/01/05 07:53:40;;;;;;;8.47;7.97;;;;;;;;;;5093648;28;20168;-84
2021/01/05 07:56:11;;;;;;;9.27;8.77;;;;;;;;;;5093785;28;20167;-83
2021/01/05 07:58:42;;;;;;;8.63;8.10;;;;;;;;;;5075215;28;20191;-83
2021/01/05 08:01:13;;;;;;;8.90;8.20;;;;;;;;;;5075052;28;20288;-84
2021/01/05 08:03:42;;;;;;;8.93;8.43;;;;;;;;;;5093517;28;20191;-84
2021/01/05 08:06:13;;;;;;;9.30;8.70;;;;;;;;;;5093709;28;20173;-84
2021/01/05 08:08:45;;;;;;;8.20;7.70;;;;;;;;;;5093430;28;20177;-84
2021/01/05 08:11:19;;;;;;;8.13;7.53;;;;;;;;;;5075819;28;20285;-84
2021/01/05 08:13:51;;;;;;;7.93;7.50;;;;;;;;;;5075265;28;20188;-84
2021/01/05 08:16:23;;;;;;;8.90;8.30;;;;;;;;;;5075595;28;20563;-84
2021/01/05 08:18:55;;;;;;;9.00;8.50;;;;;;;;;;5093090;28;20604;-84
2021/01/05 08:21:26;;;;;;;9.37;8.87;;;;;;;;;;5075088;28;20298;-84
2021/01/05 08:23:57;;;;;;;8.47;7.97;;;;;;;;;;5075105;28;20652;-84
2021/01/05 08:26:33;;;;;;;8.37;7.87;;;;;;;;;;5093574;28;20182;-84
2021/01/05 08:29:04;;;;;;;8.03;7.57;;;;;;;;;;5075188;28;20174;-84
2021/01/05 08:31:39;;;;;;;8.27;7.80;;;;;;;;;;5094953;28;20670;-84
2021/01/05 08:34:11;;;;;;;8.10;7.60;;;;;;;;;;5078626;28;20643;-83
2021/01/05 08:36:41;;;;;;;8.90;8.40;;;;;;;;;;5078437;28;20181;-83
2021/01/05 08:39:14;;;;;;;8.57;8.07;;;;;;;;;;5096714;28;20197;-84
2021/01/05 08:41:49;;;;;;;9.00;8.37;;;;;;;;;;5096500;28;20207;-84
2021/01/05 08:44:21;;;;;;;9.07;8.47;;;;;;;;;;5096622;28;20177;-84
2021/01/05 08:46:59;;;;;;;8.70;8.20;;;;;;;;;;5096634;28;20192;-84
2021/01/05 08:49:28;;;;;;;9.27;8.70;;;;;;;;;;5096849;28;20176;-84
2021/01/05 08:52:00;;;;;;;8.37;7.87;;;;;;;;;;5078320;28;20630;-83
2021/01/05 08:54:35;;;;;;;8.47;7.97;;;;;;;;;;5078278;28;20180;-84
2021/01/05 08:57:09;;;;;;;9.03;8.53;;;;;;;;;;5078336;28;20232;-84
2021/01/05 08:59:41;;;;;;;9.70;9.00;;;;;;;;;;5078113;28;20185;-83
2021/01/05 09:02:08;;;;;;;9.30;8.80;;;;;;;;;;5077701;28;20684;-83
2021/01/05 09:04:41;;;;;;;8.80;8.30;;;;;;;;;;5096309;28;20170;-83
2021/01/05 09:07:10;;;;;;;9.30;8.80;;;;;;;;;;5096841;28;20178;-83
2021/01/05 09:09:45;;;;;;;9.50;9.00;;;;;;;;;;5078489;28;20210;-83
2021/01/05 09:12:16;;;;;;;8.53;8.03;;;;;;;;;;5096270;28;20207;-83
2021/01/05 09:14:45;;;;;;;9.07;8.47;;;;;;;;;;5096233;28;20635;-83
2021/01/05 09:17:14;;;;;;;8.90;8.40;;;;;;;;;;5099565;28;20182;-83
2021/01/05 09:19:44;;;;;;;8.73;8.20;;;;;;;;;;5096666;28;20186;-83
2021/01/05 09:22:11;;;;;;;8.90;8.40;;;;;;;;;;5096566;28;20222;-84
2021/01/05 09:24:41;;;;;;;8.73;7.97;;;;;;;;;;5079793;28;20209;-83
2021/01/05 09:27:07;;;;;;;8.27;7.67;;;;;;;;;;5100549;28;20174;-83
2021/01/05 09:29:36;;;;;;;8.27;7.80;;;;;;;;;;5096481;28;20176;-84
2021/01/05 09:32:05;;;;;;;8.23;7.73;;;;;;;;;;5095803;28;20207;-83
2021/01/05 09:34:33;;;;;;;8.80;8.13;;;;;;;;;;5077872;28;20185;-84
2021/01/05 09:37:01;;;;;;;8.13;7.63;;;;;;;;;;5096282;28;20234;-83
2021/01/05 09:39:28;;;;;;;8.60;8.10;;;;;;;;;;5078619;28;20298;-83
2021/01/05 09:41:58;;;;;;;7.47;7.07;;;;;;;;;;5097346;28;20631;-83
2021/01/05 09:44:27;;;;;;;8.20;7.70;;;;;;;;;;5096018;28;20181;-83
2021/01/05 09:46:56;;;;;;;8.43;7.93;;;;;;;;;;5099755;28;20550;-83
2021/01/05 09:49:23;;;;;;;9.20;8.40;;;;;;;;;;5080015;28;20211;-83
2021/01/05 09:51:52;;;;;;;9.40;8.53;;;;;;;;;;5078481;28;20236;-83
2021/01/05 09:54:23;;;;;;;10.67;9.97;;;;;;;;;;5096331;28;20176;-84
2021/01/05 09:56:54;;;;;;;9.57;8.87;;;;;;;;;;5098673;28;20205;-83
2021/01/05 09:59:26;;;;;;;9.40;8.90;;;;;;;;;;5096758;28;20245;-83
2021/01/05 10:01:59;;;;;;;8.30;7.80;;;;;;;;;;5077695;28;20281;-84
2021/01/05 10:04:28;;;;;;;9.47;8.97;;;;;;;;;;5077279;28;20177;-83
2021/01/05 10:07:00;;;;;;;8.57;8.07;;;;;;;;;;5077152;28;20185;-83
2021/01/05 10:09:36;;;;;;;8.87;8.27;;;;;;;;;;5094903;28;20235;-83
2021/01/05 10:12:08;;;;;;;9.17;8.57;;;;;;;;;;5076800;28;20195;-83
2021/01/05 10:14:39;;;;;;;8.47;7.93;;;;;;;;;;5095331;28;20183;-84
2021/01/05 10:17:11;;;;;;;8.37;7.87;;;;;;;;;;5095835;28;20543;-83
2021/01/05 10:19:41;;;;;;;9.37;8.70;;;;;;;;;;5095349;28;20178;-83
2021/01/05 10:22:15;;;;;;;9.17;8.57;;;;;;;;;;5171426;22;20311;-85
2021/01/05 10:24:41;;;;;;;8.90;8.40;;;;;;;;;;5059071;28;20208;-86
2021/01/05 10:27:11;;;;;;;8.27;7.73;;;;;;;;;;5076640;28;20168;-86
2021/01/05 10:29:41;;;;;;;6.93;6.53;;;;;;;;;;5058087;28;20176;-86
2021/01/05 10:32:10;;;;;;;8.73;8.13;;;;;;;;;;5058201;28;20684;-87
2021/01/05 10:34:39;;;;;;;8.70;8.20;;;;;;;;;;5076822;28;20182;-86
2021/01/05 10:37:10;;;;;;;8.70;8.10;;;;;;;;;;5058320;28;20276;-86
2021/01/05 10:39:41;;;;;;;8.90;8.30;;;;;;;;;;5057614;28;20213;-85
2021/01/05 10:42:14;;;;;;;9.30;8.80;;;;;;;;;;5058160;28;20485;-85
2021/01/05 10:44:49;;;;;;;9.27;8.57;;;;;;;;;;5057280;28;20182;-85
2021/01/05 10:47:24;;;;;;;8.43;7.97;;;;;;;;;;5075619;28;20165;-85
2021/01/05 10:49:55;;;;;;;9.00;8.40;;;;;;;;;;5057239;28;20179;-85
2021/01/05 10:52:27;;;;;;;9.17;8.57;;;;;;;;;;5075485;28;20192;-85
2021/01/05 10:54:59;;;;;;;8.73;8.23;;;;;;;;;;5055148;28;20186;-84
2021/01/05 10:57:34;;;;;;;8.40;7.80;;;;;;;;;;5074510;28;20209;-83
2021/01/05 11:00:04;;;;;;;8.60;8.10;;;;;;;;;;5056326;28;20186;-83
2021/01/05 11:02:36;;;;;;;7.77;7.37;;;;;;;;;;5073696;28;20211;-83
2021/01/05 11:05:07;;;;;;;8.70;8.10;;;;;;;;;;5056003;28;20642;-83
2021/01/05 11:07:37;;;;;;;8.87;8.37;;;;;;;;;;5056738;28;20175;-84
2021/01/05 11:10:09;;;;;;;8.77;8.27;;;;;;;;;;5076039;28;20177;-85
2021/01/05 11:12:40;;;;;;;8.00;7.50;;;;;;;;;;5056149;28;20201;-86
2021/01/05 11:15:11;;;;;;;8.77;8.27;;;;;;;;;;5075746;28;20186;-85
2021/01/05 11:17:44;;;;;;;8.20;7.70;;;;;;;;;;5075185;28;20234;-85
2021/01/05 11:20:13;;;;;;;8.77;8.27;;;;;;;;;;5056845;28;20178;-85
2021/01/05 11:22:44;;;;;;;8.10;7.50;;;;;;;;;;5074457;28;20672;-85
2021/01/05 11:25:17;;;;;;;7.67;7.17;;;;;;;;;;5076101;28;20656;-85
2021/01/05 11:27:43;;;;;;;8.93;8.43;;;;;;;;;;5073907;28;20185;-85
2021/01/05 11:30:21;;;;;;;10.03;9.43;;;;;;;;;;5074154;28;20171;-84
2021/01/05 11:32:55;;;;;;;9.23;8.73;;;;;;;;;;5073668;28;20193;-85
2021/01/05 11:35:23;;;;;;;10.40;9.80;;;;;;;;;;5074205;28;20658;-85
2021/01/05 11:37:52;;;;;;;10.73;9.97;;;;;;;;;;5073856;28;20168;-85
2021/01/05 11:40:21;;;;;;;10.27;9.67;;;;;;;;;;5055131;28;20729;-85
2021/01/05 11:42:54;;;;;;;9.93;9.33;;;;;;;;;;5073415;28;20195;-85
2021/01/05 11:45:22;;;;;;;9.50;9.00;;;;;;;;;;5073623;28;20163;-86
2021/01/05 11:47:51;;;;;;;9.90;9.40;;;;;;;;;;5055674;28;20178;-86
2021/01/05 11:50:19;;;;;;;9.20;8.70;;;;;;;;;;5073819;28;20229;-86
2021/01/05 11:52:49;;;;;;;9.60;9.07;;;;;;;;;;5073986;28;20795;-86
2021/01/05 11:55:18;;;;;;;8.90;8.40;;;;;;;;;;5073651;28;20225;-86
2021/01/05 11:57:45;;;;;;;9.60;9.00;;;;;;;;;;5073584;28;20246;-86
2021/01/05 12:00:16;;;;;;;9.77;9.17;;;;;;;;;;5073598;28;20559;-86
2021/01/05 12:02:45;;;;;;;12.47;9.53;;;;;;;;;;5056073;28;20203;-84
2021/01/05 12:05:13;;;;;;;10.20;9.53;;;;;;;;;;5074531;28;20172;-83
2021/01/05 12:07:41;;;;;;;9.00;8.50;;;;;;;;;;5076945;28;20186;-84
2021/01/05 12:10:11;;;;;;;10.30;9.70;;;;;;;;;;5077481;28;20644;-84
2021/01/05 12:12:40;;;;;;;8.40;7.97;;;;;;;;;;5077283;28;20711;-84
2021/01/05 12:15:15;;;;;;;10.60;9.90;;;;;;;;;;5077670;28;20171;-86
2021/01/05 12:17:43;;;;;;;11.20;10.50;;;;;;;;;;5077209;28;20178;-85
2021/01/05 12:20:20;;;;;;;10.07;9.47;;;;;;;;;;5058741;28;20553;-85
2021/01/05 12:22:55;;;;;;;9.60;9.00;;;;;;;;;;5076873;28;20206;-88
2021/01/05 12:25:23;;;;;;;9.90;9.40;;;;;;;;;;5076529;28;20645;-86
2021/01/05 12:27:56;;;;;;;9.17;8.67;;;;;;;;;;5076261;28;20183;-86
2021/01/05 12:30:28;;;;;;;8.80;8.20;;;;;;;;;;5076279;28;20182;-86
2021/01/05 12:33:05;;;;;;;10.50;9.90;;;;;;;;;;5076002;28;20680;-87
2021/01/05 12:35:36;;;;;;;9.90;9.30;;;;;;;;;;5076410;28;20241;-87
2021/01/05 12:38:11;;;;;;;8.37;7.87;;;;;;;;;;5058278;28;20224;-86
2021/01/05 12:40:46;;;;;;;10.20;9.60;;;;;;;;;;5076367;28;20193;-86
2021/01/05 12:43:18;;;;;;;10.00;9.43;;;;;;;;;;5076109;28;20158;-86
2021/01/05 12:45:54;;;;;;;9.70;9.10;;;;;;;;;;5058150;28;20182;-87
2021/01/05 12:48:29;;;;;;;9.40;8.80;;;;;;;;;;5075928;28;20175;-86
2021/01/05 12:51:01;;;;;;;9.20;8.70;;;;;;;;;;5076061;28;20185;-86
2021/01/05 12:53:34;;;;;;;10.60;10.00;;;;;;;;;;5076062;28;20170;-86
2021/01/05 12:56:05;;;;;;;10.43;9.73;;;;;;;;;;5075956;28;20187;-87
2021/01/05 12:58:40;;;;;;;9.43;8.93;;;;;;;;;;5075849;28;20182;-86
2021/01/05 13:01:13;;;;;;;9.43;8.77;;;;;;;;;;5075811;28;20245;-86
2021/01/05 13:03:45;;;;;;;8.87;8.37;;;;;;;;;;5075955;28;20630;-86
2021/01/05 13:06:18;;;;;;;7.70;7.20;;;;;;;;;;5075474;28;20642;-87
2021/01/05 13:08:49;;;;;;;9.37;8.87;;;;;;;;;;5075886;28;20179;-86
2021/01/05 13:11:20;;;;;;;10.23;9.63;;;;;;;;;;5075464;28;20201;-86
2021/01/05 13:13:56;;;;;;;10.80;10.10;;;;;;;;;;5075550;28;20179;-86
2021/01/05 13:16:25;;;;;;;9.63;9.03;;;;;;;;;;5057984;28;20546;-86
2021/01/05 13:18:59;;;;;;;10.87;10.17;;;;;;;;;;5074443;28;20173;-87
2021/01/05 13:21:36;;;;;;;11.93;11.23;;;;;;;;;;5075105;28;20221;-87
2021/01/05 13:24:08;;;;;;;11.30;10.50;;;;;;;;;;5075327;28;20240;-86
2021/01/05 13:26:40;;;;;;;10.80;10.20;;;;;;;;;;5075465;28;20188;-87
2021/01/05 13:29:16;;;;;;;11.90;11.10;;;;;;;;;;5057472;28;20315;-87
2021/01/05 13:31:51;;;;;;;10.13;9.43;;;;;;;;;;5075240;28;20677;-86
2021/01/05 13:34:26;;;;;;;11.43;10.53;;;;;;;;;;5075526;28;20191;-86
2021/01/05 13:36:59;;;;;;;11.23;10.33;;;;;;;;;;5057120;28;20685;-87
2021/01/05 13:39:31;;;;;;;12.17;11.37;;;;;;;;;;5057117;28;20184;-87
2021/01/05 13:42:04;;;;;;;12.83;12.03;;;;;;;;;;5074879;28;20222;-87
2021/01/05 13:44:38;;;;;;;13.23;12.40;;;;;;;;;;5056851;28;20650;-87
2021/01/05 13:47:11;;;;;;;12.40;11.33;;;;;;;;;;5074842;28;20232;-86
2021/01/05 13:49:45;;;;;;;13.10;12.23;;;;;;;;;;5074743;28;20187;-86
2021/01/05 13:52:17;;;;;;;12.00;11.20;;;;;;;;;;5056777;28;20206;-86
2021/01/05 13:54:51;;;;;;;10.67;9.93;;;;;;;;;;5074654;28;20264;-86
2021/01/05 13:57:25;;;;;;;12.87;11.40;;;;;;;;;;5074641;28;20210;-87
2021/01/05 13:59:58;;;;;;;12.13;11.30;;;;;;;;;;5056755;28;20646;-87
2021/01/05 14:02:30;;;;;;;13.07;11.97;;;;;;;;;;5056570;28;20308;-86
2021/01/05 14:05:06;;;;;;;12.13;11.23;;;;;;;;;;5074440;28;20194;-87
2021/01/05 14:07:40;;;;;;;10.77;9.97;;;;;;;;;;5056537;28;20177;-87
2021/01/05 14:10:11;;;;;;;12.77;11.57;;;;;;;;;;5074504;28;20173;-87
2021/01/05 14:12:44;;;;;;;11.83;10.93;;;;;;;;;;5056269;28;20202;-87
2021/01/05 14:15:21;;;;;;;12.67;11.70;;;;;;;;;;5074257;28;20173;-87
2021/01/05 14:17:54;;;;;;;10.83;10.03;;;;;;;;;;5056269;28;20293;-86
2021/01/05 14:20:25;;;;;;;12.60;11.70;;;;;;;;;;5074136;28;20243;-87
2021/01/05 14:22:58;;;;;;;11.33;10.33;;;;;;;;;;5073905;28;20214;-87
2021/01/05 14:25:31;;;;;;;11.50;10.53;;;;;;;;;;5074338;28;20179;-87
2021/01/05 14:28:04;;;;;;;12.60;11.70;;;;;;;;;;5056063;28;20202;-87
2021/01/05 14:30:39;;;;;;;13.07;12.10;;;;;;;;;;5074272;28;20170;-86
2021/01/05 14:33:11;;;;;;;11.53;10.73;;;;;;;;;;5056043;28;20174;-87
2021/01/05 14:35:43;;;;;;;11.03;10.23;;;;;;;;;;5055900;28;20261;-86
2021/01/05 14:38:15;;;;;;;12.90;11.90;;;;;;;;;;5055900;28;20175;-86
2021/01/05 14:40:47;;;;;;;10.73;10.03;;;;;;;;;;5055751;28;20206;-86
2021/01/05 14:43:19;;;;;;;11.43;10.57;;;;;;;;;;5073885;28;20179;-87
2021/01/05 14:45:49;;;;;;;9.70;9.10;;;;;;;;;;5073896;28;20598;-87
2021/01/05 14:48:21;;;;;;;9.90;9.27;;;;;;;;;;5073635;28;20180;-87
2021/01/05 14:50:51;;;;;;;11.83;11.03;;;;;;;;;;5073524;28;20801;-87
2021/01/05 14:53:30;;;;;;;11.53;10.73;;;;;;;;;;5073639;28;20344;-87
2021/01/05 14:56:01;;;;;;;12.33;11.23;;;;;;;;;;5073802;28;20169;-87
2021/01/05 14:58:34;;;;;;;13.13;12.13;;;;;;;;;;5055372;28;20216;-87
2021/01/05 15:01:11;;;;;;;12.10;11.10;;;;;;;;;;5055444;28;20587;-87
2021/01/05 15:03:42;;;;;;;12.93;11.93;;;;;;;;;;5055461;28;20186;-87
2021/01/05 15:06:19;;;;;;;11.33;10.50;;;;;;;;;;5073350;28;20178;-87
2021/01/05 15:08:51;;;;;;;13.83;12.73;;;;;;;;;;5055369;28;20673;-86
2021/01/05 15:11:25;;;;;;;12.40;11.50;;;;;;;;;;5073447;28;20195;-87
2021/01/05 15:13:56;;;;;;;13.20;12.20;;;;;;;;;;5073566;28;20221;-87